x

Fred Howard Park, Fl (fhpf1) Weather Station

3:54pm - Sun 19th Aug 2018 All times are EDT. -4 hours from GMT.

  • Wind
    7mph, 9mph gusts
  • Air Temp 88°f
  • Sea Pressure 1017.1mb
  • Fred Howard Park, Fl
  • Fred Howard Park, Fl

More Historic Weather Station data

Upgrade to MSW Pro to gain access to the past 30 days of data for over 8000 Wavebouys and Weather Stations around the globe.

Join

Comparision Forecast

View Surf forecast
   
Sun 08/19 3:54pm 7 9 mph 1017.1mb 88f
3:48pm 6 9 mph 1017.2mb 88f
2:54pm 7 8 mph 1017.8mb 85f
2:48pm 6 8 mph 1017.9mb 85f
1:54pm 3 6 mph 1018.6mb 85f
1:48pm 3 6 mph 1018.6mb 85f
12:54pm 5 6 mph 1019mb 86f
12:48pm 5 6 mph 1019.1mb 86f
11:54am 3 6 mph 1019.2mb 86f
11:48am 3 5 mph 1019.2mb 86f
9:54am  -  1 mph 1019.3mb 86f
8:54am 6 7 mph 1018.8mb 84f
8:48am 6 8 mph 1018.8mb 84f
6:54am 6 7 mph 1017.3mb 80f
6:48am 6 7 mph 1017.1mb 80f
5:54am 7 8 mph 1016.6mb 80f
5:48am 7 8 mph 1016.5mb 80f
4:54am 6 7 mph 1016.1mb 82f
4:48am 6 7 mph 1016.2mb 82f
3:54am 5 6 mph 1016.5mb 83f
3:48am 5 6 mph 1016.6mb 83f
2:54am 2 3 mph 1017.3mb 82f
2:48am 3 5 mph 1017.3mb 82f
1:54am 6 7 mph 1017.9mb 83f
1:48am 5 6 mph 1017.9mb 83f
Sat 08/18 11:54pm 6 8 mph 1018.8mb 85f
11:48pm 6 9 mph 1018.8mb 85f
9:54pm 9 10 mph 1018.2mb 86f
9:48pm 8 9 mph 1018.1mb 86f
7:54pm 8 10 mph 1017.5mb 87f
7:48pm 8 10 mph 1017.6mb 87f
6:54pm 7 10 mph 1017.7mb 87f
6:48pm 7 9 mph 1017.8mb 87f
5:54pm 9 11 mph 1017.7mb 88f
5:48pm 8 10 mph 1017.7mb 88f
4:54pm 9 11 mph 1018mb 89f
4:48pm 9 11 mph 1018mb 89f
3:54pm 8 9 mph 1018.5mb 88f
3:48pm 9 10 mph 1018.7mb 87f
2:54pm 8 11 mph 1019.2mb 90f
2:48pm 9 11 mph 1019.2mb 90f
1:54pm 7 9 mph 1020mb 89f
1:48pm 7 9 mph 1020.1mb 89f
12:54pm 6 8 mph 1020.7mb 88f
12:48pm 6 7 mph 1020.8mb 88f
11:54am 6 7 mph 1021.1mb 87f
11:48am 6 6 mph 1021.2mb 87f
10:54am 6 7 mph 1021.4mb 86f
10:48am 7 8 mph 1021.4mb 86f
9:54am 2 3 mph 1021.6mb 86f
9:48am 2 3 mph 1021.5mb 86f
8:54am 3 5 mph 1021.3mb 84f
8:48am 3 5 mph 1021.2mb 84f
6:54am 5 6 mph 1020.4mb 80f
6:48am 6 6 mph 1020.3mb 80f
5:54am 7 7 mph 1020.2mb 80f
5:48am 6 7 mph 1020.2mb 80f
4:54am 6 8 mph 1020.4mb 81f
4:48am 6 7 mph 1020.5mb 81f
3:54am 6 7 mph 1020.6mb 81f
3:48am 6 6 mph 1020.5mb 81f
2:54am 6 7 mph 1021mb 81f
2:48am 7 8 mph 1021.1mb 81f
1:54am 8 9 mph 1021.6mb 82f
1:48am 7 8 mph 1021.7mb 82f
12:54am 2 5 mph 1022.3mb 85f
12:48am 2 5 mph 1022.2mb 85f
Fri 08/17 11:54pm 5 7 mph 1022.4mb 85f
11:48pm 6 7 mph 1022.5mb 85f
10:54pm 1 3 mph 1022mb 85f
10:48pm 3 5 mph 1022mb 85f
9:54pm 5 6 mph 1021.7mb 86f
9:48pm 3 6 mph 1021.7mb 86f
8:54pm 5 7 mph 1020.9mb 86f
8:48pm 6 8 mph 1020.9mb 86f
7:54pm 7 8 mph 1020.9mb 86f
7:48pm 7 9 mph 1020.9mb 86f
6:54pm 7 8 mph 1020.6mb 87f
6:48pm 7 8 mph 1020.6mb 87f
5:54pm 8 10 mph 1020.8mb 87f
5:48pm 9 11 mph 1021mb 87f
4:54pm 11 14 mph 1020.5mb 86f
4:48pm 11 14 mph 1020.6mb 86f
3:54pm 13 13 mph 1020.8mb 86f
3:48pm 11 13 mph 1020.9mb 86f
2:54pm 11 14 mph 1021.7mb 86f
2:48pm 13 14 mph 1021.8mb 86f
1:54pm 10 11 mph 1022.5mb 86f
1:48pm 10 11 mph 1022.5mb 85f
12:54pm 7 9 mph 1022.8mb 87f
12:48pm 7 9 mph 1022.9mb 87f
9:54am 8 9 mph 1023.2mb 83f
9:48am 7 9 mph 1023.1mb 83f
8:54am 7 9 mph 1023mb 80f
8:48am 7 9 mph 1023mb 79f
7:54am 6 8 mph 1022.4mb 79f
7:48am 6 7 mph 1022.2mb 79f
6:54am 8 10 mph 1021.6mb 79f
6:48am 9 11 mph 1021.5mb 79f
5:54am 11 14 mph 1021.3mb 78f
5:48am 11 13 mph 1021.3mb 78f
4:54am 9 11 mph 1021.3mb 79f
4:48am 10 13 mph 1021.4mb 79f
3:54am 6 7 mph 1021.6mb 78f
3:48am 6 7 mph 1021.8mb 78f
2:54am 3 5 mph 1021.8mb 79f
2:48am 3 6 mph 1021.9mb 79f
1:54am 8 10 mph 1022.5mb 79f
1:48am 9 11 mph 1022.7mb 79f
12:54am 8 10 mph 1023.2mb 80f
12:48am 9 13 mph 1023.2mb 80f
Thu 08/16 10:54pm 13 15 mph 1023.1mb 82f
10:48pm 11 15 mph 1022.9mb 83f
9:54pm 6 7 mph 1022.5mb 85f
9:48pm 5 6 mph 1022.3mb 85f
8:54pm 2 3 mph 1022.3mb 87f
8:48pm 2 3 mph 1022.4mb 87f